createdAt,value
2019-05-15T00:00:02.626Z,2.70
2019-05-15T00:01:02.639Z,2.70
2019-05-15T00:02:02.596Z,2.40
2019-05-15T00:03:02.587Z,2.60
2019-05-15T00:04:02.615Z,2.80
2019-05-15T00:05:02.570Z,2.70
2019-05-15T00:06:02.569Z,2.50
2019-05-15T00:07:02.547Z,2.90
2019-05-15T00:08:02.536Z,2.60
2019-05-15T00:09:02.528Z,2.50
2019-05-15T00:10:02.517Z,2.50
2019-05-15T00:11:02.513Z,2.50
2019-05-15T00:12:02.495Z,2.70
2019-05-15T00:13:02.488Z,2.90
2019-05-15T00:14:02.477Z,2.50
2019-05-15T00:15:02.459Z,2.80
2019-05-15T00:16:02.454Z,2.80
2019-05-15T00:17:02.434Z,2.60
2019-05-15T00:18:02.425Z,2.60
2019-05-15T00:19:02.414Z,2.50
2019-05-15T00:20:02.414Z,2.40
2019-05-15T00:21:02.405Z,2.50
2019-05-15T00:22:02.383Z,2.50
2019-05-15T00:23:02.371Z,2.30
2019-05-15T00:24:02.373Z,2.40
2019-05-15T00:25:02.353Z,2.50
2019-05-15T00:26:02.351Z,2.50
2019-05-15T00:27:02.330Z,3.00
2019-05-15T00:28:02.317Z,2.60
2019-05-15T00:29:12.834Z,2.60
2019-05-15T00:30:03.294Z,2.50
2019-05-15T00:31:02.304Z,2.70
2019-05-15T00:32:02.272Z,2.50
2019-05-15T00:33:02.261Z,2.70
2019-05-15T00:34:02.260Z,3.10
2019-05-15T00:35:02.240Z,2.70
2019-05-15T00:36:02.241Z,2.80
2019-05-15T00:37:02.221Z,2.70
2019-05-15T00:38:02.211Z,2.90
2019-05-15T00:39:02.191Z,2.30
2019-05-15T00:40:02.188Z,2.50
2019-05-15T00:41:02.187Z,2.60
2019-05-15T00:42:02.162Z,2.60
2019-05-15T00:43:02.157Z,2.40
2019-05-15T00:44:02.139Z,2.60
2019-05-15T00:45:02.132Z,2.50
2019-05-15T00:46:02.129Z,3.00
2019-05-15T00:47:02.112Z,2.70
2019-05-15T00:48:02.099Z,2.50
2019-05-15T00:49:02.091Z,2.80
2019-05-15T00:50:02.091Z,2.80
2019-05-15T00:51:02.242Z,3.00
2019-05-15T00:52:02.063Z,2.80
2019-05-15T00:53:02.038Z,3.20
2019-05-15T00:54:02.040Z,2.80
2019-05-15T00:55:02.028Z,3.00
2019-05-15T00:56:02.008Z,2.70
2019-05-15T00:57:02.006Z,2.80
2019-05-15T00:58:01.988Z,2.90
2019-05-15T00:59:01.989Z,2.50
2019-05-15T01:00:01.975Z,2.80
2019-05-15T01:01:01.947Z,2.70
2019-05-15T01:02:01.959Z,2.50
2019-05-15T01:03:01.926Z,2.80
2019-05-15T01:04:01.919Z,2.40
2019-05-15T01:05:01.928Z,2.80
2019-05-15T01:06:01.904Z,2.60
2019-05-15T01:07:01.906Z,2.60
2019-05-15T01:08:01.877Z,2.80
2019-05-15T01:09:01.866Z,2.80
2019-05-15T01:10:01.857Z,2.60
2019-05-15T01:11:01.845Z,2.80
2019-05-15T01:12:01.845Z,2.70
2019-05-15T01:13:01.823Z,2.80
2019-05-15T01:14:01.827Z,2.80
2019-05-15T01:15:01.803Z,3.10
2019-05-15T01:16:01.793Z,3.00
2019-05-15T01:17:01.793Z,2.60
2019-05-15T01:18:01.776Z,2.90
2019-05-15T01:19:01.754Z,2.80
2019-05-15T01:20:01.765Z,2.80
2019-05-15T01:21:01.733Z,2.70
2019-05-15T01:22:01.743Z,3.00
2019-05-15T01:23:01.713Z,2.90
2019-05-15T01:24:01.703Z,3.00
2019-05-15T01:25:01.691Z,3.00
2019-05-15T01:26:01.671Z,2.70
2019-05-15T01:27:01.682Z,3.30
2019-05-15T01:28:01.665Z,2.80
2019-05-15T01:29:01.646Z,2.90
2019-05-15T01:30:01.641Z,3.10
2019-05-15T01:31:01.621Z,2.90
2019-05-15T01:32:01.634Z,3.00
2019-05-15T01:33:01.612Z,2.80
2019-05-15T01:34:01.593Z,3.00
2019-05-15T01:35:01.580Z,3.00
2019-05-15T01:36:01.570Z,2.90
2019-05-15T01:37:01.581Z,3.00
2019-05-15T01:38:01.549Z,2.60
2019-05-15T01:39:01.545Z,2.70
2019-05-15T01:40:01.527Z,2.70
2019-05-15T01:41:01.527Z,2.60
2019-05-15T01:42:01.528Z,2.90
2019-05-15T01:43:01.501Z,2.90
2019-05-15T01:44:01.488Z,2.80
2019-05-15T01:45:01.469Z,2.80
2019-05-15T01:46:01.468Z,2.70
2019-05-15T01:47:01.448Z,3.20
2019-05-15T01:48:01.448Z,3.00
2019-05-15T01:49:01.431Z,3.30
2019-05-15T01:50:01.417Z,3.30
2019-05-15T01:51:01.406Z,3.10
2019-05-15T01:52:01.396Z,3.10
2019-05-15T01:53:01.397Z,3.30
2019-05-15T01:54:01.376Z,3.50
2019-05-15T01:55:01.366Z,3.30
2019-05-15T01:56:01.355Z,3.10
2019-05-15T01:57:01.346Z,2.90
2019-05-15T01:58:01.346Z,3.10
2019-05-15T01:59:01.328Z,3.30
2019-05-15T02:00:01.319Z,3.40
2019-05-15T02:01:01.295Z,3.50
2019-05-15T02:02:01.295Z,3.40
2019-05-15T02:03:01.284Z,3.50
2019-05-15T02:04:01.266Z,3.30
2019-05-15T02:05:01.265Z,3.70
2019-05-15T02:06:01.243Z,3.20
2019-05-15T02:07:01.232Z,3.30
2019-05-15T02:08:01.241Z,3.50
2019-05-15T02:09:01.213Z,3.40
2019-05-15T02:10:01.205Z,3.60
2019-05-15T02:11:01.191Z,3.70
2019-05-15T02:12:01.180Z,3.60
2019-05-15T02:13:01.182Z,3.20
2019-05-15T02:14:01.162Z,3.30
2019-05-15T02:15:01.162Z,3.40
2019-05-15T02:16:01.141Z,3.10
2019-05-15T02:17:01.124Z,3.50
2019-05-15T02:18:01.129Z,3.40
2019-05-15T02:19:01.105Z,3.20
2019-05-15T02:20:01.094Z,3.50
2019-05-15T02:21:01.083Z,3.00
2019-05-15T02:22:01.074Z,3.30
2019-05-15T02:23:01.068Z,3.20
2019-05-15T02:24:01.052Z,3.40
2019-05-15T02:25:01.043Z,3.30
2019-05-15T02:26:01.029Z,3.20
2019-05-15T02:27:01.018Z,3.30
2019-05-15T02:28:01.016Z,3.10
2019-05-15T02:29:00.989Z,3.30
2019-05-15T02:30:16.787Z,3.30
2019-05-15T02:31:01.970Z,3.80
2019-05-15T02:32:00.962Z,3.00
2019-05-15T02:33:00.971Z,3.10
2019-05-15T02:34:00.946Z,3.50
2019-05-15T02:35:00.938Z,3.20
2019-05-15T02:36:00.917Z,3.20
2019-05-15T02:37:00.909Z,3.00
2019-05-15T02:38:00.908Z,3.40
2019-05-15T02:39:00.878Z,3.20
2019-05-15T02:40:00.878Z,3.40
2019-05-15T02:41:00.866Z,3.30
2019-05-15T02:42:00.857Z,3.40
2019-05-15T02:43:00.857Z,3.40
2019-05-15T02:44:00.837Z,3.60
2019-05-15T02:45:00.816Z,3.30
2019-05-15T02:46:00.926Z,3.80
2019-05-15T02:47:00.796Z,3.40
2019-05-15T02:48:00.800Z,3.40
2019-05-15T02:49:00.797Z,3.40
2019-05-15T02:50:00.766Z,3.30
2019-05-15T02:51:00.756Z,3.50
2019-05-15T02:52:00.757Z,3.40
2019-05-15T02:53:00.902Z,3.50
2019-05-15T02:54:00.732Z,3.50
2019-05-15T02:55:00.709Z,3.90
2019-05-15T02:56:00.699Z,3.80
2019-05-15T02:57:00.685Z,3.80
2019-05-15T02:58:00.674Z,3.20
2019-05-15T02:59:00.682Z,3.50
2019-05-15T03:00:00.656Z,3.70
2019-05-15T03:01:00.645Z,3.80
2019-05-15T03:02:00.644Z,3.70
2019-05-15T03:03:00.626Z,3.60
2019-05-15T03:04:00.623Z,3.90
2019-05-15T03:05:00.609Z,3.70
2019-05-15T03:06:00.594Z,3.70
2019-05-15T03:07:00.635Z,3.70
2019-05-15T03:08:00.567Z,3.90
2019-05-15T03:09:00.564Z,4.10
2019-05-15T03:10:00.554Z,3.80
2019-05-15T03:11:09.788Z,4.00
2019-05-15T03:12:00.518Z,3.80
2019-05-15T03:13:00.507Z,4.10
2019-05-15T03:14:00.508Z,3.90
2019-05-15T03:15:00.487Z,3.90
2019-05-15T03:16:00.490Z,3.60
2019-05-15T03:17:00.466Z,3.90
2019-05-15T03:18:00.582Z,4.20
2019-05-15T03:19:00.467Z,3.80
2019-05-15T03:20:00.482Z,3.60
2019-05-15T03:21:00.599Z,3.30
2019-05-15T03:22:00.436Z,3.80
2019-05-15T03:23:00.397Z,3.80
2019-05-15T03:24:00.404Z,4.00
2019-05-15T03:25:00.378Z,3.60
2019-05-15T03:26:04.018Z,3.90
2019-05-15T03:27:00.367Z,3.90
2019-05-15T03:28:00.347Z,3.80
2019-05-15T03:29:00.365Z,3.70
2019-05-15T03:30:00.349Z,4.10
2019-05-15T03:31:17.833Z,3.90
2019-05-15T03:32:17.875Z,4.10
2019-05-15T03:33:09.162Z,3.80
2019-05-15T03:34:03.422Z,4.40
2019-05-15T03:35:04.777Z,4.50
2019-05-15T03:36:03.453Z,4.60
2019-05-15T03:37:03.202Z,3.80
2019-05-15T03:38:00.241Z,4.40
2019-05-15T03:39:00.242Z,4.30
2019-05-15T03:40:00.257Z,4.20
2019-05-15T03:41:00.204Z,3.90
2019-05-15T03:42:00.192Z,4.20
2019-05-15T03:43:00.191Z,3.90
2019-05-15T03:44:00.181Z,4.10
2019-05-15T03:45:00.163Z,4.20
2019-05-15T03:46:01.555Z,3.80
2019-05-15T03:47:00.140Z,4.10
2019-05-15T03:48:00.130Z,4.10
2019-05-15T03:49:00.627Z,3.60
2019-05-15T03:50:00.280Z,3.70
2019-05-15T03:51:00.097Z,3.80
2019-05-15T03:52:00.101Z,4.00
2019-05-15T03:53:00.077Z,4.20
2019-05-15T03:54:00.453Z,3.90
2019-05-15T03:55:00.067Z,4.10
2019-05-15T03:56:00.048Z,4.20
2019-05-15T03:57:00.037Z,4.00
2019-05-15T03:58:00.019Z,3.90
2019-05-15T03:59:00.043Z,4.60
2019-05-15T04:00:00.023Z,4.40
2019-05-15T04:01:00.458Z,5.20
2019-05-15T04:02:00.164Z,4.80
2019-05-15T04:02:59.973Z,5.50
2019-05-15T04:04:00.043Z,5.00
2019-05-15T04:05:01.602Z,4.90
2019-05-15T04:06:00.672Z,5.10
2019-05-15T04:07:00.017Z,4.40
2019-05-15T04:08:00.146Z,4.40
2019-05-15T04:08:59.907Z,4.50
2019-05-15T04:09:59.894Z,4.30
2019-05-15T04:10:59.881Z,4.50
2019-05-15T04:12:00.171Z,5.10
2019-05-15T04:13:00.193Z,4.80
2019-05-15T04:13:59.843Z,4.80
2019-05-15T04:14:59.877Z,4.70
2019-05-15T04:15:59.825Z,5.00
2019-05-15T04:16:59.835Z,5.10
2019-05-15T04:18:00.524Z,4.50
2019-05-15T04:18:59.788Z,4.70
2019-05-15T04:19:59.790Z,4.20
2019-05-15T04:21:00.323Z,4.50
2019-05-15T04:22:00.227Z,4.10
2019-05-15T04:23:00.541Z,4.30
2019-05-15T04:23:59.753Z,4.00
2019-05-15T04:24:59.742Z,4.50
2019-05-15T04:25:59.712Z,4.60
2019-05-15T04:27:00.047Z,4.40
2019-05-15T04:27:59.719Z,4.40
2019-05-15T04:29:00.238Z,4.60
2019-05-15T04:29:59.681Z,4.50
2019-05-15T04:30:59.839Z,4.50
2019-05-15T04:32:05.331Z,4.80
2019-05-15T04:33:00.631Z,4.50
2019-05-15T04:33:59.643Z,4.50
2019-05-15T04:34:59.705Z,5.80
2019-05-15T04:35:59.602Z,5.90
2019-05-15T04:36:59.614Z,5.70
2019-05-15T04:37:59.910Z,5.40
2019-05-15T04:38:59.570Z,5.80
2019-05-15T04:39:59.856Z,5.20
2019-05-15T04:40:59.551Z,5.50
2019-05-15T04:41:59.540Z,5.40
2019-05-15T04:42:59.532Z,5.30
2019-05-15T04:43:59.825Z,6.00
2019-05-15T04:44:59.768Z,6.00
2019-05-15T04:46:02.988Z,6.80
2019-05-15T04:46:59.787Z,6.60
2019-05-15T04:47:59.467Z,5.90
2019-05-15T04:48:59.767Z,6.00
2019-05-15T04:49:59.461Z,6.00
2019-05-15T04:50:59.439Z,6.20
2019-05-15T04:52:03.353Z,6.30
2019-05-15T04:52:59.479Z,6.30
2019-05-15T04:53:59.400Z,6.90
2019-05-15T04:54:59.938Z,6.60
2019-05-15T04:55:59.926Z,6.60
2019-05-15T04:56:59.570Z,6.60
2019-05-15T04:57:59.458Z,6.20
2019-05-15T04:59:00.208Z,6.30
2019-05-15T04:59:59.368Z,6.10
2019-05-15T05:01:00.190Z,6.30
2019-05-15T05:02:16.240Z,6.30
2019-05-15T05:03:00.304Z,6.40
2019-05-15T05:03:59.316Z,6.60
2019-05-15T05:04:59.277Z,6.70
2019-05-15T05:05:59.461Z,6.80
2019-05-15T05:06:59.258Z,6.40
2019-05-15T05:07:59.702Z,6.10
2019-05-15T05:08:59.623Z,6.50
2019-05-15T05:09:59.598Z,6.80
2019-05-15T05:10:59.489Z,7.10
2019-05-15T05:11:59.203Z,6.60
2019-05-15T05:12:59.221Z,6.60
2019-05-15T05:13:59.297Z,6.90
2019-05-15T05:14:59.165Z,19.50
2019-05-15T05:15:59.194Z,46.70
2019-05-15T05:16:59.383Z,27.60
2019-05-15T05:17:59.130Z,23.50
2019-05-15T05:18:59.485Z,20.50
2019-05-15T05:19:59.109Z,16.20
2019-05-15T05:20:59.114Z,15.30
2019-05-15T05:21:59.108Z,14.80
2019-05-15T05:22:59.079Z,15.70
2019-05-15T05:23:59.067Z,15.20
2019-05-15T05:24:59.059Z,10.60
2019-05-15T05:25:59.049Z,8.50
2019-05-15T05:26:59.042Z,9.40
2019-05-15T05:27:59.022Z,11.50
2019-05-15T05:29:01.444Z,12.70
2019-05-15T05:29:58.997Z,12.30
2019-05-15T05:30:59.041Z,12.50
2019-05-15T05:31:58.988Z,11.70
2019-05-15T05:32:58.966Z,11.00
2019-05-15T05:33:58.958Z,9.20
2019-05-15T05:34:59.032Z,9.50
2019-05-15T05:35:58.946Z,9.60
2019-05-15T05:36:59.064Z,8.30
2019-05-15T05:37:58.915Z,8.10
2019-05-15T05:38:58.896Z,7.60
2019-05-15T05:39:58.885Z,7.80
2019-05-15T05:40:58.896Z,7.70
2019-05-15T05:41:58.899Z,7.40
2019-05-15T05:42:59.594Z,6.80
2019-05-15T05:43:58.844Z,7.70
2019-05-15T05:44:58.833Z,6.80
2019-05-15T05:45:58.834Z,8.20
2019-05-15T05:46:58.821Z,9.60
2019-05-15T05:47:58.816Z,9.00
2019-05-15T05:48:58.792Z,6.60
2019-05-15T05:49:58.784Z,7.20
2019-05-15T05:50:58.784Z,7.70
2019-05-15T05:51:58.855Z,6.30
2019-05-15T05:52:58.849Z,5.70
2019-05-15T05:53:59.060Z,5.00
2019-05-15T05:54:58.722Z,5.40
2019-05-15T05:55:58.722Z,5.50
2019-05-15T05:56:58.728Z,5.20
2019-05-15T05:57:58.694Z,5.70
2019-05-15T05:58:58.804Z,5.40
2019-05-15T05:59:58.661Z,5.30
2019-05-15T06:00:58.795Z,5.50
2019-05-15T06:01:59.112Z,4.90
2019-05-15T06:02:59.142Z,4.90
2019-05-15T06:03:58.620Z,5.00
2019-05-15T06:04:58.620Z,5.00
2019-05-15T06:05:59.229Z,5.30
2019-05-15T06:07:07.075Z,5.30
2019-05-15T06:07:59.579Z,5.20
2019-05-15T06:08:58.596Z,5.10
2019-05-15T06:09:58.561Z,6.00
2019-05-15T06:10:58.746Z,7.80
2019-05-15T06:11:58.539Z,8.60
2019-05-15T06:12:58.814Z,7.20
2019-05-15T06:13:58.590Z,5.20
2019-05-15T06:14:58.508Z,4.30
2019-05-15T06:15:59.055Z,4.60
2019-05-15T06:16:58.941Z,4.70
2019-05-15T06:17:58.600Z,4.80
2019-05-15T06:18:58.745Z,4.60
2019-05-15T06:19:58.684Z,4.70
2019-05-15T06:20:58.880Z,4.80
2019-05-15T06:22:01.062Z,4.80
2019-05-15T06:22:58.423Z,4.90
2019-05-15T06:24:04.716Z,5.00
2019-05-15T06:24:59.403Z,4.60
2019-05-15T06:25:59.257Z,4.70
2019-05-15T06:26:58.748Z,4.70
2019-05-15T06:27:58.427Z,4.50
2019-05-15T06:28:58.683Z,4.20
2019-05-15T06:29:58.347Z,4.20
2019-05-15T06:31:00.663Z,4.80
2019-05-15T06:31:58.776Z,4.30
2019-05-15T06:33:08.369Z,4.30
2019-05-15T06:33:59.302Z,4.20
2019-05-15T06:34:58.284Z,4.30
2019-05-15T06:35:59.260Z,4.00
2019-05-15T06:36:58.841Z,4.00
2019-05-15T06:37:59.128Z,4.30
2019-05-15T06:38:59.059Z,4.10
2019-05-15T06:39:58.857Z,3.70
2019-05-15T06:40:58.376Z,3.90
2019-05-15T06:41:58.854Z,4.00
2019-05-15T06:42:59.314Z,3.70
2019-05-15T06:43:58.922Z,4.20
2019-05-15T06:44:58.916Z,4.00
2019-05-15T06:45:58.558Z,3.90
2019-05-15T06:46:58.775Z,3.70
2019-05-15T06:48:01.373Z,3.80
2019-05-15T06:48:58.281Z,4.10
2019-05-15T06:49:58.134Z,3.80
2019-05-15T06:50:58.136Z,3.90
2019-05-15T06:51:58.256Z,3.80
2019-05-15T06:52:58.736Z,3.70
2019-05-15T06:53:58.384Z,3.50
2019-05-15T06:54:59.267Z,3.90
2019-05-15T06:55:58.606Z,3.90
2019-05-15T06:56:58.461Z,3.70
2019-05-15T06:57:58.515Z,3.90
2019-05-15T06:58:58.282Z,4.00
2019-05-15T06:59:58.060Z,3.80
2019-05-15T07:00:59.319Z,4.10
2019-05-15T07:01:59.431Z,4.30
2019-05-15T07:02:58.393Z,3.90
2019-05-15T07:03:59.002Z,3.40
2019-05-15T07:04:58.475Z,3.10
2019-05-15T07:05:59.762Z,3.30
2019-05-15T07:06:58.428Z,3.40
2019-05-15T07:07:58.486Z,3.50
2019-05-15T07:08:58.595Z,3.20
2019-05-15T07:09:58.323Z,3.50
2019-05-15T07:10:58.019Z,3.20
2019-05-15T07:11:59.094Z,3.60
2019-05-15T07:12:58.513Z,3.70
2019-05-15T07:13:58.138Z,3.90
2019-05-15T07:14:58.322Z,3.30
2019-05-15T07:15:58.512Z,3.30
2019-05-15T07:16:59.273Z,2.90
2019-05-15T07:17:58.105Z,3.50
2019-05-15T07:18:58.885Z,3.80
2019-05-15T07:19:59.304Z,3.20
2019-05-15T07:20:58.171Z,2.90
2019-05-15T07:21:58.160Z,3.20
2019-05-15T07:22:58.631Z,3.30
2019-05-15T07:23:58.364Z,3.10
2019-05-15T07:24:58.284Z,2.90
2019-05-15T07:25:58.725Z,3.00
2019-05-15T07:26:59.102Z,2.80
2019-05-15T07:27:58.211Z,3.20
2019-05-15T07:28:59.602Z,3.10
2019-05-15T07:29:58.396Z,3.00
2019-05-15T07:30:58.364Z,3.20
2019-05-15T07:31:58.589Z,2.80
2019-05-15T07:32:58.346Z,3.00
2019-05-15T07:33:59.821Z,2.80
2019-05-15T07:34:57.907Z,3.10
2019-05-15T07:35:59.039Z,3.00
2019-05-15T07:36:59.168Z,3.00
2019-05-15T07:37:58.648Z,3.20
2019-05-15T07:38:58.092Z,3.00
2019-05-15T07:39:59.138Z,3.30
2019-05-15T07:41:03.836Z,3.00
2019-05-15T07:41:58.593Z,2.90
2019-05-15T07:42:58.691Z,3.00
2019-05-15T07:43:58.603Z,2.80
2019-05-15T07:44:58.801Z,2.70
2019-05-15T07:45:59.006Z,2.70
2019-05-15T07:46:58.363Z,3.10
2019-05-15T07:47:58.494Z,2.90
2019-05-15T07:48:58.341Z,2.70
2019-05-15T07:49:59.042Z,2.60
2019-05-15T07:50:59.463Z,3.10
2019-05-15T07:51:59.181Z,3.00
2019-05-15T07:52:59.044Z,2.70
2019-05-15T07:53:58.324Z,2.90
2019-05-15T07:54:58.156Z,2.90
2019-05-15T07:56:01.190Z,2.70
2019-05-15T07:56:58.159Z,2.50
2019-05-15T07:57:59.201Z,2.40
2019-05-15T07:58:58.656Z,2.40
2019-05-15T07:59:58.801Z,2.40
2019-05-15T08:00:58.973Z,2.60
2019-05-15T08:01:58.140Z,2.70
2019-05-15T08:02:58.643Z,2.60
2019-05-15T08:04:14.359Z,2.70
2019-05-15T08:04:58.366Z,2.60
2019-05-15T08:06:02.125Z,2.50
2019-05-15T08:06:59.157Z,2.40
2019-05-15T08:07:58.188Z,2.50
2019-05-15T08:08:59.223Z,2.20
2019-05-15T08:09:59.197Z,2.10
2019-05-15T08:10:57.916Z,2.40
2019-05-15T08:12:00.167Z,2.30
2019-05-15T08:12:58.309Z,2.20
2019-05-15T08:13:58.152Z,2.00
2019-05-15T08:14:58.283Z,2.00
2019-05-15T08:15:57.994Z,2.10
2019-05-15T08:16:59.175Z,2.20
2019-05-15T08:18:05.536Z,2.00
2019-05-15T08:18:58.237Z,2.00
2019-05-15T08:19:58.249Z,2.00
2019-05-15T08:20:58.639Z,2.20
2019-05-15T08:21:58.146Z,4.60
2019-05-15T08:22:58.222Z,2.20
2019-05-15T08:23:59.073Z,2.40
2019-05-15T08:24:59.184Z,2.50
2019-05-15T08:25:57.889Z,2.40
2019-05-15T08:26:58.111Z,2.20
2019-05-15T08:27:58.751Z,2.50
2019-05-15T08:28:57.914Z,2.50
2019-05-15T08:29:58.120Z,2.10
2019-05-15T08:30:58.314Z,2.30
2019-05-15T08:31:59.036Z,2.10
2019-05-15T08:32:58.918Z,2.10
2019-05-15T08:34:12.290Z,2.20
2019-05-15T08:34:58.642Z,2.50
2019-05-15T08:35:58.774Z,2.30
2019-05-15T08:36:59.031Z,2.40
2019-05-15T08:37:58.130Z,2.20
2019-05-15T08:38:59.091Z,2.20
2019-05-15T08:39:59.424Z,2.40
2019-05-15T08:40:59.045Z,2.50
2019-05-15T08:41:58.457Z,2.40
2019-05-15T08:43:01.868Z,2.70
2019-05-15T08:43:58.050Z,2.80
2019-05-15T08:44:58.377Z,2.70
2019-05-15T08:45:58.636Z,2.40
2019-05-15T08:46:58.779Z,2.80
2019-05-15T08:47:58.550Z,2.10
2019-05-15T08:48:58.347Z,2.40
2019-05-15T08:49:57.933Z,2.40
2019-05-15T08:50:57.875Z,2.40
2019-05-15T08:51:58.411Z,2.30
2019-05-15T08:52:57.920Z,2.30
2019-05-15T08:53:58.003Z,2.40
2019-05-15T08:54:59.142Z,2.40
2019-05-15T08:55:58.744Z,2.40
2019-05-15T08:56:59.212Z,2.60
2019-05-15T08:58:07.556Z,2.60
2019-05-15T08:58:58.118Z,2.70
2019-05-15T08:59:58.333Z,2.30
2019-05-15T09:00:58.727Z,2.40
2019-05-15T09:01:58.245Z,2.90
2019-05-15T09:02:58.219Z,2.60
2019-05-15T09:03:58.202Z,2.50
2019-05-15T09:04:58.025Z,2.80
2019-05-15T09:05:58.795Z,2.40
2019-05-15T09:07:01.056Z,2.70
2019-05-15T09:07:58.053Z,3.00
2019-05-15T09:08:58.502Z,2.80
2019-05-15T09:09:58.070Z,2.60
2019-05-15T09:10:58.712Z,2.80
2019-05-15T09:11:58.483Z,2.80
2019-05-15T09:12:58.648Z,2.60
2019-05-15T09:13:59.327Z,2.50
2019-05-15T09:14:58.186Z,2.60
2019-05-15T09:15:58.866Z,3.00
2019-05-15T09:16:58.254Z,2.50
2019-05-15T09:18:11.045Z,2.80
2019-05-15T09:18:59.169Z,2.30
2019-05-15T09:19:58.746Z,2.00
2019-05-15T09:20:59.097Z,2.90
2019-05-15T09:21:58.501Z,2.80
2019-05-15T09:22:58.283Z,2.80
2019-05-15T09:23:58.981Z,2.70
2019-05-15T09:24:58.823Z,3.00
2019-05-15T09:25:57.872Z,2.30
2019-05-15T09:26:59.229Z,2.30
2019-05-15T09:27:57.969Z,2.60
2019-05-15T09:28:58.488Z,2.50
2019-05-15T09:29:59.021Z,2.60
2019-05-15T09:30:58.851Z,2.40
2019-05-15T09:31:58.678Z,2.40
2019-05-15T09:32:58.727Z,2.60
2019-05-15T09:33:58.556Z,2.30
2019-05-15T09:34:59.010Z,2.60
2019-05-15T09:35:58.335Z,2.50
2019-05-15T09:36:59.762Z,2.30
2019-05-15T09:37:58.342Z,2.60
2019-05-15T09:38:58.518Z,2.30
2019-05-15T09:39:58.391Z,2.40
2019-05-15T09:40:58.500Z,2.70
2019-05-15T09:41:57.931Z,2.80
2019-05-15T09:42:57.813Z,2.00
2019-05-15T09:43:57.900Z,2.40
2019-05-15T09:44:58.190Z,2.10
2019-05-15T09:45:58.275Z,2.70
2019-05-15T09:46:58.479Z,2.40
2019-05-15T09:47:58.658Z,2.60
2019-05-15T09:48:59.063Z,2.50
2019-05-15T09:49:56.342Z,2.80
2019-05-15T09:50:58.535Z,2.40
2019-05-15T09:51:58.503Z,2.50
2019-05-15T09:52:58.633Z,2.50
2019-05-15T09:53:59.413Z,2.70
2019-05-15T09:54:59.111Z,2.70
2019-05-15T09:55:56.263Z,2.90
2019-05-15T09:56:58.376Z,2.60
2019-05-15T09:57:58.875Z,2.60
2019-05-15T09:58:58.168Z,2.60
2019-05-15T09:59:58.665Z,2.70
2019-05-15T10:00:56.223Z,2.80
2019-05-15T10:01:58.693Z,2.80
2019-05-15T10:02:56.193Z,2.70
2019-05-15T10:03:56.182Z,2.60
2019-05-15T10:05:06.154Z,2.80
2019-05-15T10:05:57.170Z,2.50
2019-05-15T10:06:56.142Z,2.60
2019-05-15T10:07:56.134Z,2.40
2019-05-15T10:08:56.130Z,2.30
2019-05-15T10:09:56.131Z,1.90
2019-05-15T10:10:56.100Z,2.70
2019-05-15T10:11:56.103Z,1.90
2019-05-15T10:12:59.357Z,2.40
2019-05-15T10:13:58.369Z,2.40
2019-05-15T10:14:59.037Z,2.30
2019-05-15T10:15:58.429Z,2.30
2019-05-15T10:16:58.224Z,2.70
2019-05-15T10:17:59.480Z,2.70
2019-05-15T10:18:58.180Z,2.50
2019-05-15T10:19:58.207Z,2.40
2019-05-15T10:20:58.139Z,2.60
2019-05-15T10:21:55.980Z,2.60
2019-05-15T10:22:55.974Z,2.50
2019-05-15T10:23:58.783Z,2.50
2019-05-15T10:24:58.579Z,2.70
2019-05-15T10:25:55.939Z,2.50
2019-05-15T10:26:58.007Z,2.50
2019-05-15T10:27:57.940Z,2.70
2019-05-15T10:28:58.277Z,2.70
2019-05-15T10:29:55.909Z,2.50
2019-05-15T10:30:55.897Z,2.40
2019-05-15T10:31:55.877Z,2.70
2019-05-15T10:32:55.859Z,2.50
2019-05-15T10:33:58.121Z,2.50
2019-05-15T10:34:55.849Z,2.70
2019-05-15T10:35:55.838Z,2.80
2019-05-15T10:36:55.827Z,2.90
2019-05-15T10:37:55.816Z,2.90
2019-05-15T10:38:55.815Z,2.40
2019-05-15T10:39:58.269Z,2.40
2019-05-15T10:41:08.487Z,2.70
2019-05-15T10:41:56.768Z,2.80
2019-05-15T10:42:55.758Z,2.40
2019-05-15T10:43:56.861Z,2.70
2019-05-15T10:44:55.746Z,2.20
2019-05-15T10:45:55.716Z,2.40
2019-05-15T10:46:58.354Z,2.40
2019-05-15T10:47:58.407Z,2.20
2019-05-15T10:48:58.414Z,2.40
2019-05-15T10:49:55.697Z,2.20
2019-05-15T10:51:01.369Z,2.30
2019-05-15T10:51:56.655Z,2.50
2019-05-15T10:52:55.639Z,2.40
2019-05-15T10:53:55.625Z,2.60
2019-05-15T10:54:58.153Z,2.50
2019-05-15T10:55:59.491Z,3.00
2019-05-15T10:56:55.596Z,2.80
2019-05-15T10:57:55.597Z,2.70
2019-05-15T10:58:55.566Z,2.60
2019-05-15T10:59:55.564Z,2.50
2019-05-15T11:00:55.560Z,2.70
2019-05-15T11:01:55.543Z,2.80
2019-05-15T11:02:57.846Z,2.40
2019-05-15T11:03:55.514Z,2.50
2019-05-15T11:04:57.741Z,2.40
2019-05-15T11:05:57.876Z,2.40
2019-05-15T11:06:55.475Z,2.30
2019-05-15T11:07:55.463Z,2.60
2019-05-15T11:08:58.205Z,2.50
2019-05-15T11:09:58.059Z,2.30
2019-05-15T11:10:58.371Z,3.00
2019-05-15T11:11:58.173Z,2.40
2019-05-15T11:12:55.414Z,2.70
2019-05-15T11:14:00.315Z,2.30
2019-05-15T11:14:56.420Z,2.40
2019-05-15T11:15:55.386Z,2.30
2019-05-15T11:16:55.363Z,2.70
2019-05-15T11:17:55.353Z,2.60
2019-05-15T11:18:55.345Z,2.40
2019-05-15T11:19:55.333Z,2.40
2019-05-15T11:20:55.334Z,2.50
2019-05-15T11:21:55.311Z,2.50
2019-05-15T11:22:55.312Z,2.90
2019-05-15T11:23:55.292Z,2.70
2019-05-15T11:24:55.272Z,2.50
2019-05-15T11:25:55.270Z,2.40
2019-05-15T11:26:56.206Z,2.50
2019-05-15T11:27:55.233Z,2.40
2019-05-15T11:28:55.232Z,2.50
2019-05-15T11:29:55.210Z,2.50
2019-05-15T11:30:55.211Z,2.50
2019-05-15T11:31:55.189Z,2.70
2019-05-15T11:32:55.209Z,2.30
2019-05-15T11:33:55.164Z,2.50
2019-05-15T11:34:55.171Z,2.40
2019-05-15T11:36:04.204Z,2.30
2019-05-15T11:36:59.098Z,2.70
2019-05-15T11:37:56.873Z,2.40
2019-05-15T11:38:55.109Z,2.70
2019-05-15T11:39:55.108Z,2.80
2019-05-15T11:40:55.090Z,2.30
2019-05-15T11:41:55.070Z,2.30
2019-05-15T11:42:55.069Z,2.20
2019-05-15T11:43:55.060Z,2.60
2019-05-15T11:44:55.040Z,2.60
2019-05-15T11:45:55.029Z,2.30
2019-05-15T11:46:55.009Z,2.20
2019-05-15T11:47:55.007Z,2.50
2019-05-15T11:48:54.997Z,2.60
2019-05-15T11:49:54.979Z,2.30
2019-05-15T11:50:54.981Z,2.50
2019-05-15T11:51:54.949Z,2.30
2019-05-15T11:52:54.941Z,2.60
2019-05-15T11:53:54.930Z,2.50
2019-05-15T11:54:55.262Z,2.40
2019-05-15T11:55:54.918Z,2.10
2019-05-15T11:56:54.903Z,2.00
2019-05-15T11:57:55.745Z,2.20
2019-05-15T11:58:54.877Z,1.90
2019-05-15T11:59:55.722Z,2.20
2019-05-15T12:00:54.865Z,2.50
2019-05-15T12:01:54.837Z,2.10
2019-05-15T12:02:54.827Z,2.00
2019-05-15T12:03:54.807Z,2.20
2019-05-15T12:04:54.808Z,2.00
2019-05-15T12:05:54.817Z,2.10
2019-05-15T12:06:59.721Z,2.20
2019-05-15T12:07:57.788Z,2.20
2019-05-15T12:08:54.758Z,2.30
2019-05-15T12:09:54.748Z,2.30
2019-05-15T12:10:54.765Z,2.20
2019-05-15T12:11:54.731Z,2.50
2019-05-15T12:12:54.706Z,2.20
2019-05-15T12:13:54.697Z,2.40
2019-05-15T12:14:54.687Z,2.30
2019-05-15T12:15:54.677Z,2.30
2019-05-15T12:17:06.860Z,2.30
2019-05-15T12:17:55.655Z,2.30
2019-05-15T12:18:54.638Z,2.20
2019-05-15T12:19:56.759Z,2.10
2019-05-15T12:20:55.615Z,2.30
2019-05-15T12:21:54.616Z,2.50
2019-05-15T12:22:54.598Z,2.40
2019-05-15T12:23:54.585Z,2.20
2019-05-15T12:24:54.569Z,2.50
2019-05-15T12:25:54.669Z,2.30
2019-05-15T12:26:54.555Z,2.30
2019-05-15T12:27:54.547Z,2.20
2019-05-15T12:28:54.526Z,2.30
2019-05-15T12:29:54.505Z,2.10
2019-05-15T12:30:54.495Z,2.50
2019-05-15T12:31:54.494Z,2.30
2019-05-15T12:32:54.484Z,2.40
2019-05-15T12:33:54.457Z,2.30
2019-05-15T12:34:54.449Z,2.40
2019-05-15T12:35:54.445Z,2.10
2019-05-15T12:37:55.437Z,2.40
2019-05-15T12:38:54.433Z,2.20
2019-05-15T12:59:55.142Z,2.50
2019-05-15T13:00:54.140Z,2.20
2019-05-15T13:01:54.134Z,2.70
2019-05-15T13:02:54.125Z,2.60
2019-05-15T13:03:54.101Z,2.20
2019-05-15T13:04:54.086Z,2.40
2019-05-15T13:05:54.072Z,2.30
2019-05-15T13:07:11.828Z,2.40
2019-05-15T13:07:55.050Z,2.50
2019-05-15T13:08:54.039Z,2.10
2019-05-15T13:09:54.021Z,2.20
2019-05-15T13:10:54.011Z,2.20
2019-05-15T13:11:54.012Z,2.00
2019-05-15T13:13:00.873Z,2.20
2019-05-15T13:13:54.969Z,2.10
2019-05-15T13:14:53.969Z,2.30
2019-05-15T13:15:53.951Z,2.30
2019-05-15T13:16:53.950Z,2.30
2019-05-15T13:17:54.133Z,1.90
2019-05-15T13:18:53.912Z,2.40
2019-05-15T13:19:53.901Z,2.10
2019-05-15T13:20:56.132Z,1.90
2019-05-15T13:21:53.890Z,2.20
2019-05-15T13:22:53.861Z,2.20
2019-05-15T13:23:53.850Z,2.00
2019-05-15T13:24:53.839Z,2.10
2019-05-15T13:25:53.832Z,2.00
2019-05-15T13:26:53.811Z,2.10
2019-05-15T13:27:53.809Z,1.90
2019-05-15T13:28:53.790Z,2.20
2019-05-15T13:29:53.779Z,2.40
2019-05-15T13:30:53.767Z,2.00
2019-05-15T13:31:53.754Z,2.00
2019-05-15T13:32:53.836Z,1.80
2019-05-15T13:33:53.730Z,2.00
2019-05-15T13:34:53.727Z,2.60
2019-05-15T13:35:53.700Z,2.60
2019-05-15T13:36:53.708Z,2.40
2019-05-15T13:37:53.690Z,2.10